Vineland, New Jersey
Current Conditions -  °F | °C
As of 9:54 AM on Monday 24 Nov 2014 (Local Time) from KMIV Reporting Station
Scattered Clouds Scattered Clouds  
Wind Chill: 65°   Ceiling: Unl
Heat Index: 65°   Visibility: 10mi
Dew Point: 60°   Wind: 8mph
Humidity: 84%   Direction: 210°SSW
Pressure: 29.72"   Gusts: NA
Location:  39.49°N, 75.04°W
Report Text: KMIV 241454Z AUTO 21007KT 10SM FEW020 SCT026 18/16 A2972 RMK AO2 SLP061 60000 T01830156 55003
Loading
Personal Weather Stations






























Interactive Weather Map New forecast layout! Learn more

10-Day Weather Forecast

Advertisements
Track Severe Weather on mobile